CPA28 YSSY-YBBN
Flight info
| Callsign | CPA28 |
|---|---|
| Flight time | N/A |
| Altitude | 39000 |
| Route | YSSY/34L 3342S15112E BANDA H252 BN |
| Aircraft | B748/H-SDE3FGHIM1M2RWXY/LB1 |
Departure
| Time | N/A |
|---|---|
| Airport | Sydney Kingsford Smith International Airport (YSSY) |
Arrival
| Time | 2026-05-01 08:20 |
|---|---|
| Airport | Brisbane International Airport (YBBN) |
| Time | Latitude | Longitude | Altitude | Speed | Heading |
|---|---|---|---|---|---|
| 2026-05-01 07:23 | -32.68358 | 151.70061 | 35267 ft | 507 kts | 21° |
| 2026-05-01 07:23 | -32.61801 | 151.73163 | 36087 ft | 508 kts | 20° |
| 2026-05-01 07:24 | -32.58521 | 151.74713 | 36449 ft | 510 kts | 20° |
| 2026-05-01 07:24 | -32.55211 | 151.76277 | 36827 ft | 511 kts | 20° |
| 2026-05-01 07:24 | -32.51903 | 151.77839 | 37198 ft | 512 kts | 20° |
| 2026-05-01 07:24 | -32.48587 | 151.79401 | 37561 ft | 513 kts | 20° |
| 2026-05-01 07:25 | -32.45263 | 151.80967 | 37932 ft | 514 kts | 20° |
| 2026-05-01 07:25 | -32.41934 | 151.82534 | 38278 ft | 515 kts | 20° |
| 2026-05-01 07:25 | -32.38598 | 151.84103 | 38626 ft | 516 kts | 20° |
| 2026-05-01 07:25 | -32.35256 | 151.85674 | 38979 ft | 517 kts | 19° |
| 2026-05-01 07:26 | -32.31908 | 151.87246 | 39262 ft | 518 kts | 19° |
| 2026-05-01 07:26 | -32.25195 | 151.90396 | 39330 ft | 518 kts | 19° |
| 2026-05-01 07:27 | -32.18495 | 151.93533 | 39333 ft | 519 kts | 19° |
| 2026-05-01 07:27 | -32.11784 | 151.96671 | 39338 ft | 519 kts | 19° |
| 2026-05-01 07:28 | -32.05065 | 151.99807 | 39335 ft | 519 kts | 19° |
| 2026-05-01 07:28 | -31.98346 | 152.02939 | 39336 ft | 519 kts | 19° |
| 2026-05-01 07:29 | -31.91671 | 152.06045 | 39336 ft | 519 kts | 19° |
| 2026-05-01 07:29 | -31.84951 | 152.09167 | 39338 ft | 519 kts | 19° |
| 2026-05-01 07:30 | -31.78227 | 152.12286 | 39335 ft | 519 kts | 19° |
| 2026-05-01 07:30 | -31.71502 | 152.15402 | 39340 ft | 519 kts | 19° |
| 2026-05-01 07:31 | -31.64780 | 152.18510 | 39337 ft | 519 kts | 19° |
| 2026-05-01 07:32 | -31.47962 | 152.26267 | 39344 ft | 520 kts | 19° |
| 2026-05-01 07:33 | -31.37863 | 152.30909 | 39344 ft | 520 kts | 19° |
| 2026-05-01 07:33 | -31.27760 | 152.35544 | 39342 ft | 520 kts | 19° |
| 2026-05-01 07:34 | -31.17647 | 152.40171 | 39349 ft | 521 kts | 19° |
| 2026-05-01 07:35 | -31.10911 | 152.43248 | 39353 ft | 520 kts | 19° |
| 2026-05-01 07:35 | -31.04173 | 152.46321 | 39348 ft | 520 kts | 19° |
| 2026-05-01 07:36 | -30.97434 | 152.49391 | 39340 ft | 520 kts | 19° |
| 2026-05-01 07:36 | -30.90684 | 152.52458 | 39343 ft | 521 kts | 19° |
| 2026-05-01 07:37 | -30.80551 | 152.57056 | 39335 ft | 521 kts | 18° |
| 2026-05-01 07:37 | -30.73661 | 152.59612 | 39346 ft | 520 kts | 14° |
| 2026-05-01 07:38 | -30.66749 | 152.62120 | 39350 ft | 520 kts | 15° |
| 2026-05-01 07:39 | -30.56388 | 152.65872 | 39345 ft | 520 kts | 14° |
| 2026-05-01 07:39 | -30.46042 | 152.69614 | 39337 ft | 519 kts | 14° |
| 2026-05-01 07:40 | -30.39148 | 152.72100 | 39335 ft | 519 kts | 14° |
| 2026-05-01 07:40 | -30.32252 | 152.74585 | 39331 ft | 519 kts | 14° |
| 2026-05-01 07:41 | -30.25352 | 152.77066 | 39324 ft | 519 kts | 14° |
| 2026-05-01 07:42 | -30.14995 | 152.80785 | 39323 ft | 520 kts | 14° |
| 2026-05-01 07:42 | -30.08089 | 152.83260 | 39317 ft | 520 kts | 14° |
| 2026-05-01 07:43 | -30.01182 | 152.85732 | 39313 ft | 519 kts | 14° |
| 2026-05-01 07:43 | -29.90834 | 152.89427 | 39308 ft | 519 kts | 14° |
| 2026-05-01 07:44 | -29.77014 | 152.94351 | 39299 ft | 520 kts | 14° |
| 2026-05-01 07:45 | -29.70107 | 152.96806 | 39297 ft | 520 kts | 14° |
| 2026-05-01 07:45 | -29.63248 | 152.99240 | 39293 ft | 519 kts | 14° |
| 2026-05-01 07:46 | -29.56345 | 153.01687 | 39290 ft | 519 kts | 14° |
| 2026-05-01 07:47 | -29.47158 | 153.04938 | 39290 ft | 519 kts | 14° |
| 2026-05-01 07:47 | -29.40256 | 153.07376 | 39288 ft | 519 kts | 14° |
| 2026-05-01 07:48 | -29.29893 | 153.11031 | 39284 ft | 519 kts | 14° |
| 2026-05-01 07:48 | -29.22984 | 153.13463 | 39281 ft | 519 kts | 14° |
| 2026-05-01 07:49 | -29.12624 | 153.17106 | 39277 ft | 519 kts | 14° |
| 2026-05-01 07:50 | -29.05709 | 153.19533 | 39273 ft | 520 kts | 14° |
| 2026-05-01 07:50 | -28.95345 | 153.23165 | 39270 ft | 519 kts | 14° |
| 2026-05-01 07:51 | -28.88444 | 153.25578 | 39270 ft | 519 kts | 14° |
| 2026-05-01 07:52 | -28.78140 | 153.29175 | 38168 ft | 518 kts | 14° |
| 2026-05-01 07:52 | -28.74694 | 153.30375 | 37527 ft | 518 kts | 14° |
| 2026-05-01 07:52 | -28.71242 | 153.31580 | 36882 ft | 519 kts | 14° |
| 2026-05-01 07:53 | -28.64344 | 153.33981 | 35558 ft | 519 kts | 14° |
| 2026-05-01 07:53 | -28.60890 | 153.35181 | 34856 ft | 519 kts | 14° |
| 2026-05-01 07:53 | -28.57428 | 153.36384 | 34140 ft | 520 kts | 15° |
| 2026-05-01 07:53 | -28.53966 | 153.37588 | 33387 ft | 520 kts | 15° |
| 2026-05-01 07:54 | -28.47027 | 153.39995 | 31876 ft | 523 kts | 15° |
| 2026-05-01 07:55 | -28.36535 | 153.43627 | 29405 ft | 524 kts | 15° |
| 2026-05-01 07:55 | -28.29601 | 153.46024 | 27784 ft | 517 kts | 15° |
| 2026-05-01 07:56 | -28.19346 | 153.49458 | 25393 ft | 507 kts | 10° |
| 2026-05-01 07:56 | -28.12398 | 153.49484 | 23809 ft | 498 kts | 349° |
| 2026-05-01 07:57 | -28.09001 | 153.48790 | 22973 ft | 493 kts | 348° |
| 2026-05-01 07:57 | -28.02326 | 153.47375 | 21429 ft | 483 kts | 349° |
| 2026-05-01 07:58 | -27.95773 | 153.46036 | 19902 ft | 474 kts | 350° |
| 2026-05-01 07:58 | -27.89335 | 153.44696 | 18377 ft | 467 kts | 351° |
| 2026-05-01 07:59 | -27.82995 | 153.43392 | 16522 ft | 464 kts | 351° |
| 2026-05-01 07:59 | -27.76749 | 153.42103 | 15139 ft | 450 kts | 351° |
| 2026-05-01 08:00 | -27.64674 | 153.39630 | 12237 ft | 429 kts | 354° |
| 2026-05-01 08:01 | -27.56326 | 153.39785 | 11702 ft | 378 kts | 5° |
| 2026-05-01 08:01 | -27.53753 | 153.39909 | 11624 ft | 363 kts | 5° |
| 2026-05-01 08:01 | -27.51275 | 153.40023 | 11541 ft | 350 kts | 5° |
| 2026-05-01 08:02 | -27.46577 | 153.40236 | 11393 ft | 327 kts | 5° |
| 2026-05-01 08:02 | -27.44343 | 153.40339 | 11324 ft | 317 kts | 5° |
| 2026-05-01 08:03 | -27.40063 | 153.40535 | 11120 ft | 299 kts | 6° |
| 2026-05-01 08:03 | -27.39729 | 153.40550 | 11054 ft | 297 kts | 6° |
| 2026-05-01 08:04 | -27.35803 | 153.40731 | 10485 ft | 305 kts | 6° |
| 2026-05-01 08:04 | -27.31396 | 153.40935 | 10532 ft | 327 kts | 5° |
| 2026-05-01 08:05 | -27.26727 | 153.41146 | 10635 ft | 347 kts | 5° |
| 2026-05-01 08:05 | -27.24289 | 153.41258 | 10673 ft | 349 kts | 5° |
| 2026-05-01 08:05 | -27.21963 | 153.41358 | 10609 ft | 331 kts | 5° |
| 2026-05-01 08:06 | -27.17268 | 153.42022 | 10718 ft | 357 kts | 26° |
| 2026-05-01 08:06 | -27.13692 | 153.45536 | 10803 ft | 327 kts | 66° |
| 2026-05-01 08:07 | -27.13241 | 153.49960 | 10329 ft | 270 kts | 105° |
| 2026-05-01 08:07 | -27.14887 | 153.53489 | 8179 ft | 250 kts | 132° |
| 2026-05-01 08:08 | -27.16211 | 153.54737 | 6945 ft | 248 kts | 146° |
| 2026-05-01 08:08 | -27.19373 | 153.55888 | 4975 ft | 236 kts | 172° |
| 2026-05-01 08:09 | -27.22566 | 153.55292 | 3989 ft | 243 kts | 207° |
| 2026-05-01 08:09 | -27.23824 | 153.53948 | 4009 ft | 257 kts | 233° |
| 2026-05-01 08:09 | -27.24379 | 153.52038 | 3993 ft | 265 kts | 263° |
| 2026-05-01 08:10 | -27.22984 | 153.48285 | 3988 ft | 271 kts | 311° |
| 2026-05-01 08:10 | -27.20463 | 153.45239 | 3984 ft | 272 kts | 312° |
| 2026-05-01 08:11 | -27.18071 | 153.42113 | 3956 ft | 243 kts | 312° |
| 2026-05-01 08:11 | -27.16012 | 153.39472 | 3947 ft | 217 kts | 311° |
| 2026-05-01 08:12 | -27.14012 | 153.36902 | 3964 ft | 220 kts | 312° |
| 2026-05-01 08:12 | -27.13043 | 153.35579 | 3960 ft | 220 kts | 302° |
| 2026-05-01 08:12 | -27.13106 | 153.32410 | 3980 ft | 206 kts | 237° |
| 2026-05-01 08:13 | -27.13780 | 153.30978 | 3983 ft | 208 kts | 237° |
| 2026-05-01 08:13 | -27.14426 | 153.29533 | 3974 ft | 204 kts | 239° |
| 2026-05-01 08:13 | -27.15661 | 153.26595 | 3969 ft | 205 kts | 238° |
| 2026-05-01 08:14 | -27.16586 | 153.25442 | 3965 ft | 193 kts | 205° |
| 2026-05-01 08:14 | -27.17779 | 153.24702 | 3981 ft | 194 kts | 202° |
| 2026-05-01 08:14 | -27.18998 | 153.23991 | 3924 ft | 199 kts | 201° |
| 2026-05-01 08:14 | -27.20198 | 153.23300 | 3710 ft | 192 kts | 201° |
| 2026-05-01 08:15 | -27.21388 | 153.22623 | 3513 ft | 190 kts | 200° |
| 2026-05-01 08:15 | -27.23552 | 153.21390 | 3031 ft | 163 kts | 200° |
| 2026-05-01 08:15 | -27.24560 | 153.20812 | 2790 ft | 164 kts | 199° |
| 2026-05-01 08:16 | -27.25571 | 153.20232 | 2578 ft | 161 kts | 200° |
| 2026-05-01 08:16 | -27.26571 | 153.19661 | 2375 ft | 162 kts | 199° |
| 2026-05-01 08:16 | -27.27571 | 153.19093 | 2157 ft | 161 kts | 199° |
| 2026-05-01 08:16 | -27.28518 | 153.18543 | 1939 ft | 146 kts | 198° |
| 2026-05-01 08:17 | -27.29394 | 153.18053 | 1723 ft | 136 kts | 198° |
| 2026-05-01 08:17 | -27.30215 | 153.17580 | 1535 ft | 134 kts | 199° |
| 2026-05-01 08:17 | -27.31068 | 153.17094 | 1410 ft | 139 kts | 200° |
| 2026-05-01 08:17 | -27.31960 | 153.16587 | 1253 ft | 142 kts | 200° |
| 2026-05-01 08:18 | -27.32834 | 153.16060 | 1053 ft | 141 kts | 202° |
| 2026-05-01 08:18 | -27.34549 | 153.15084 | 649 ft | 141 kts | 205° |
| 2026-05-01 08:19 | -27.36308 | 153.14084 | 319 ft | 139 kts | 205° |
| 2026-05-01 08:19 | -27.37176 | 153.13588 | 119 ft | 137 kts | 205° |
| 2026-05-01 08:19 | -27.38007 | 153.13127 | 27 ft | 120 kts | 208° |
| 2026-05-01 08:19 | -27.38552 | 153.12808 | 27 ft | 62 kts | 207° |
| 2026-05-01 08:20 | -27.38843 | 153.12639 | 31 ft | 32 kts | 214° |
| 2026-05-01 08:20 | -27.38946 | 153.12538 | 30 ft | 8 kts | 224° |
| 2026-05-01 08:20 | -27.38991 | 153.12478 | 28 ft | 27 kts | 232° |
| 2026-05-01 08:20 | -27.39095 | 153.12306 | 28 ft | 9 kts | 238° |
| 2026-05-01 08:21 | -27.39097 | 153.12302 | 28 ft | 0 kts | 239° |
| 2026-05-01 08:22 | -27.39102 | 153.12292 | 30 ft | 3 kts | 239° |
| 2026-05-01 08:22 | -27.39113 | 153.12276 | 30 ft | 3 kts | 229° |
| 2026-05-01 08:22 | -27.39194 | 153.12216 | 29 ft | 26 kts | 207° |
| 2026-05-01 08:23 | -27.39354 | 153.12126 | 30 ft | 23 kts | 207° |
| 2026-05-01 08:23 | -27.39511 | 153.12035 | 27 ft | 27 kts | 206° |
| 2026-05-01 08:23 | -27.39690 | 153.11934 | 27 ft | 33 kts | 206° |
| 2026-05-01 08:23 | -27.39898 | 153.11813 | 27 ft | 30 kts | 207° |
| 2026-05-01 08:24 | -27.40021 | 153.11715 | 28 ft | 6 kts | 269° |
| 2026-05-01 08:24 | -27.39962 | 153.11642 | 27 ft | 13 kts | 353° |
| 2026-05-01 08:24 | -27.39869 | 153.11655 | 27 ft | 11 kts | 328° |
| 2026-05-01 08:24 | -27.39828 | 153.11562 | 30 ft | 22 kts | 295° |
| 2026-05-01 08:25 | -27.39804 | 153.11434 | 28 ft | 10 kts | 250° |
| 2026-05-01 08:25 | -27.39828 | 153.11391 | 28 ft | 2 kts | 220° |
| 2026-05-01 08:25 | -27.39842 | 153.11379 | 30 ft | 0 kts | 217° |